The Valley, Anguilla

9:24 PM AST on August 27, 2015 (GMT -0400)
West End, Anguilla | | Change Station
CLOSE
Current Station
Personal Weather Station
Location: Anguilla,
Elevation: 46 ft
Nearby Weather Stations

Elev 46 ft 18.17 °N, 63.15 °W | Updated 3 minutes ago

Partly Cloudy
Partly Cloudy
80.7 °F
Feels Like 85 °F
N
19.0
Wind Variable Wind from SE
Gusts 19.0 mph

Today
High -- | Low -- °F
--% Chance of Precip.
Yesterday
High -- | Low -- °F
Precip. -- in
5:57 AM 6:30 PM
Waxing Gibbous, 96% visible
Pressure 29.98 in
Visibility 6.2 miles
Clouds Few 1800 ft
Heat Index 85 °F
Dew Point 73 °F
Humidity 78%
Rainfall 0.02 in
Snow Depth Not available.
UV 0 out of 12
Pollen Not available.
Air Quality Not available.
Flu Activity Not available.
METAR TNCM 280100Z 13024G38KT 9999 FEW018 27/23 Q1015 A2997 TEMPO 13024G38KT
Pressure 29.98 in
Visibility 6.2 miles
Clouds Few 1800 ft
Heat Index 85 °F
Dew Point 73 °F
Humidity 78%
Rainfall 0.02 in
Snow Depth Not available.
UV 0 out of 12
Pollen Not available.
Air Quality Not available.
Flu Activity Not available.
METAR TNCM 280100Z 13024G38KT 9999 FEW018 27/23 Q1015 A2997 TEMPO 13024G38KT

10-Day Weather Forecast

×

Almanac

Astronomy

Aug. 27, 2015 Rise Set
Actual Time
Civil Twilight
Nautical Twilight
Astronomical Twilight
Moon
Length of Visible Light
Length of Day
Tomorrow will be .
, % of the Moon is Illuminated

Today's Extremes

Country Highs Country Lows

Community

WunderPhotos

Upload Photos

1,850,297 photos uploaded!

WunderBlogs® & News

Nearby

Air Quality

  Air Quality AQ Index Pollutant
Not available.

Snow Depth

Station Depth Elevation

Earthquake Activity

City Distance Mag. Time & Date
Minimum magnitude displayed is 2.5.

Coastal Water Temperatures

Place Temperature

Stations

Nearby Weather Stations

Station Location Temp. Windchill Dew Point Humidity Wind Precip. Elev Updated Type